FACT/CPT METAR and TAF weather

Enter ICAO airport designator
Station Type Date Time Source
FACT METAR 2020/03/28 21:00 UTC NOAA

FACT 282100Z 20009KT 9999 SCT040 17/16 Q1018 NOSIG


Station Type Date Time Source
FACT Decoded METAR 2020/03/28 21:00 UTC NOAA

Cape Town, Cape Town International Airport, South Africa (FACT) 33-59S 018-36E 0M
Mar 28, 2020 - 05:00 PM EDT / 2020.03.28 2100 UTC
Wind: from the SSW (200 degrees) at 10 MPH (9 KT):0
Visibility: greater than 7 mile(s):0
Sky conditions: partly cloudy
Temperature: 62 F (17 C)
Dew Point: 60 F (16 C)
Relative Humidity: 93%
Pressure (altimeter): 30.06 in. Hg (1018 hPa)
ob: FACT 282100Z 20009KT 9999 SCT040 17/16 Q1018 NOSIG
cycle: 21

Station Type Date Time Source
FACT TAF 2020/03/28 18:16 UTC NOAA

TAF FACT 281600Z 2818/2924 18005KT 9999 SCT012 BKN020 TX23/2912Z TN12/2905Z PROB30
TEMPO 2818/2821 BKN012
FM290400 17008KT 9999 FEW035
BECMG 2910/2912 17016KT

Example: see airport list